WAT5643 SAEZ-KATL
Flight info
| Callsign | WAT5643 |
|---|---|
| Flight time | N/A |
| Altitude | 30000 |
| Route | BIVAM1J BIVAM UN775 PILCO UM784 LOKOX UL417 KADOX/N0471F320 UL417 BUTAN/N0467F340 UL417 LENAX/N0463F360 UL417 BORDO B760 ZBV BR55V PREDA DCT OMN DCT LARZZ JJEDI4 |
| Aircraft | A21N/M-SDE3FGHIJ5RWY/LB1 |
Departure
| Time | N/A |
|---|---|
| Airport | Ezeiza International Airport - Ministro Pistarini (SAEZ) |
Arrival
| Time | 2026-05-07 14:55 |
|---|---|
| Airport | Hartsfield Jackson Atlanta International Airport (KATL) |
| Time | Latitude | Longitude | Altitude | Speed | Heading |
|---|---|---|---|---|---|
| 2026-05-07 12:55 | 23.27049 | -78.23807 | 36061 ft | 410 kts | 343° |
| 2026-05-07 12:55 | 23.29820 | -78.24638 | 36063 ft | 410 kts | 343° |
| 2026-05-07 12:56 | 23.35289 | -78.26282 | 36065 ft | 409 kts | 343° |
| 2026-05-07 12:56 | 23.40729 | -78.27919 | 36063 ft | 409 kts | 343° |
| 2026-05-07 12:57 | 23.46162 | -78.29555 | 36062 ft | 409 kts | 343° |
| 2026-05-07 12:57 | 23.51604 | -78.31196 | 36059 ft | 409 kts | 343° |
| 2026-05-07 12:58 | 23.57073 | -78.32845 | 36060 ft | 409 kts | 343° |
| 2026-05-07 12:58 | 23.62526 | -78.34491 | 36059 ft | 408 kts | 343° |
| 2026-05-07 12:59 | 23.67943 | -78.36128 | 36060 ft | 408 kts | 343° |
| 2026-05-07 12:59 | 23.73399 | -78.37779 | 36057 ft | 408 kts | 343° |
| 2026-05-07 13:00 | 23.78824 | -78.39423 | 36059 ft | 408 kts | 342° |
| 2026-05-07 13:00 | 23.84252 | -78.41070 | 36060 ft | 408 kts | 342° |
| 2026-05-07 13:01 | 23.89644 | -78.42709 | 36059 ft | 408 kts | 342° |
| 2026-05-07 13:01 | 23.94975 | -78.44328 | 36059 ft | 409 kts | 342° |
| 2026-05-07 13:02 | 24.00371 | -78.46156 | 36061 ft | 409 kts | 338° |
| 2026-05-07 13:02 | 24.05572 | -78.48512 | 36068 ft | 408 kts | 335° |
| 2026-05-07 13:03 | 24.10789 | -78.51041 | 36066 ft | 408 kts | 334° |
| 2026-05-07 13:03 | 24.15953 | -78.53546 | 36062 ft | 408 kts | 334° |
| 2026-05-07 13:04 | 24.21146 | -78.56067 | 36066 ft | 408 kts | 334° |
| 2026-05-07 13:04 | 24.26336 | -78.58588 | 36068 ft | 408 kts | 334° |
| 2026-05-07 13:05 | 24.31483 | -78.61090 | 36069 ft | 408 kts | 334° |
| 2026-05-07 13:05 | 24.36700 | -78.63631 | 36070 ft | 409 kts | 334° |
| 2026-05-07 13:06 | 24.41857 | -78.66145 | 36072 ft | 409 kts | 334° |
| 2026-05-07 13:06 | 24.47036 | -78.68664 | 36073 ft | 409 kts | 334° |
| 2026-05-07 13:07 | 24.52252 | -78.71192 | 36073 ft | 408 kts | 334° |
| 2026-05-07 13:07 | 24.57408 | -78.73699 | 36074 ft | 408 kts | 334° |
| 2026-05-07 13:08 | 24.62621 | -78.76241 | 36077 ft | 408 kts | 334° |
| 2026-05-07 13:08 | 24.67810 | -78.78775 | 36079 ft | 409 kts | 334° |
| 2026-05-07 13:09 | 24.72990 | -78.81308 | 36076 ft | 409 kts | 334° |
| 2026-05-07 13:09 | 24.78157 | -78.83836 | 36078 ft | 409 kts | 334° |
| 2026-05-07 13:10 | 24.83332 | -78.86372 | 36079 ft | 409 kts | 334° |
| 2026-05-07 13:10 | 24.88496 | -78.88904 | 36078 ft | 409 kts | 334° |
| 2026-05-07 13:11 | 24.93700 | -78.91457 | 36079 ft | 409 kts | 334° |
| 2026-05-07 13:11 | 24.98863 | -78.93993 | 36079 ft | 409 kts | 334° |
| 2026-05-07 13:12 | 25.04036 | -78.96537 | 36078 ft | 410 kts | 334° |
| 2026-05-07 13:12 | 25.09243 | -78.99100 | 36077 ft | 410 kts | 334° |
| 2026-05-07 13:13 | 25.14376 | -79.01629 | 36078 ft | 410 kts | 334° |
| 2026-05-07 13:13 | 25.19537 | -79.04174 | 36077 ft | 409 kts | 334° |
| 2026-05-07 13:14 | 25.24643 | -79.06695 | 36077 ft | 410 kts | 334° |
| 2026-05-07 13:14 | 25.29817 | -79.09251 | 36078 ft | 410 kts | 334° |
| 2026-05-07 13:15 | 25.34998 | -79.11815 | 36077 ft | 410 kts | 333° |
| 2026-05-07 13:15 | 25.40177 | -79.14381 | 36079 ft | 410 kts | 333° |
| 2026-05-07 13:16 | 25.45354 | -79.16950 | 36077 ft | 410 kts | 333° |
| 2026-05-07 13:16 | 25.50536 | -79.19524 | 36077 ft | 410 kts | 333° |
| 2026-05-07 13:17 | 25.55692 | -79.22083 | 36078 ft | 410 kts | 333° |
| 2026-05-07 13:17 | 25.60881 | -79.24661 | 36080 ft | 410 kts | 333° |
| 2026-05-07 13:18 | 25.66071 | -79.27243 | 36078 ft | 410 kts | 333° |
| 2026-05-07 13:18 | 25.71302 | -79.29615 | 36078 ft | 411 kts | 338° |
| 2026-05-07 13:19 | 25.76754 | -79.31504 | 36078 ft | 413 kts | 340° |
| 2026-05-07 13:19 | 25.82243 | -79.33319 | 36078 ft | 414 kts | 340° |
| 2026-05-07 13:20 | 25.87755 | -79.35146 | 36078 ft | 414 kts | 340° |
| 2026-05-07 13:20 | 25.93209 | -79.36960 | 36078 ft | 413 kts | 340° |
| 2026-05-07 13:21 | 25.98680 | -79.38776 | 36079 ft | 413 kts | 340° |
| 2026-05-07 13:21 | 26.04142 | -79.40581 | 36080 ft | 413 kts | 340° |
| 2026-05-07 13:22 | 26.09651 | -79.42410 | 36078 ft | 414 kts | 340° |
| 2026-05-07 13:22 | 26.15134 | -79.44237 | 36079 ft | 414 kts | 340° |
| 2026-05-07 13:23 | 26.20616 | -79.46067 | 36079 ft | 413 kts | 340° |
| 2026-05-07 13:23 | 26.26083 | -79.47896 | 36075 ft | 414 kts | 340° |
| 2026-05-07 13:24 | 26.31518 | -79.49712 | 36077 ft | 413 kts | 340° |
| 2026-05-07 13:24 | 26.36921 | -79.51813 | 36076 ft | 411 kts | 335° |
| 2026-05-07 13:25 | 26.42037 | -79.54396 | 36075 ft | 410 kts | 332° |
| 2026-05-07 13:25 | 26.47103 | -79.57073 | 36075 ft | 410 kts | 332° |
| 2026-05-07 13:26 | 26.52219 | -79.59782 | 36074 ft | 411 kts | 332° |
| 2026-05-07 13:26 | 26.57338 | -79.62494 | 36074 ft | 411 kts | 332° |
| 2026-05-07 13:27 | 26.62409 | -79.65182 | 36074 ft | 411 kts | 331° |
| 2026-05-07 13:27 | 26.67517 | -79.67892 | 36072 ft | 410 kts | 331° |
| 2026-05-07 13:28 | 26.72604 | -79.70594 | 36066 ft | 410 kts | 331° |
| 2026-05-07 13:28 | 26.77746 | -79.73328 | 36070 ft | 411 kts | 331° |
| 2026-05-07 13:29 | 26.82822 | -79.76029 | 36070 ft | 411 kts | 331° |
| 2026-05-07 13:29 | 26.87947 | -79.78760 | 36068 ft | 411 kts | 331° |
| 2026-05-07 13:30 | 26.93052 | -79.81483 | 36065 ft | 411 kts | 331° |
| 2026-05-07 13:30 | 26.98176 | -79.84219 | 36064 ft | 412 kts | 331° |
| 2026-05-07 13:31 | 27.03319 | -79.86965 | 36064 ft | 411 kts | 331° |
| 2026-05-07 13:31 | 27.08397 | -79.89681 | 36064 ft | 412 kts | 331° |
| 2026-05-07 13:32 | 27.13470 | -79.92396 | 36066 ft | 411 kts | 331° |
| 2026-05-07 13:32 | 27.18621 | -79.95159 | 36066 ft | 411 kts | 331° |
| 2026-05-07 13:33 | 27.23719 | -79.97894 | 36067 ft | 411 kts | 331° |
| 2026-05-07 13:33 | 27.28830 | -80.00638 | 36067 ft | 411 kts | 330° |
| 2026-05-07 13:34 | 27.36336 | -80.04675 | 36066 ft | 411 kts | 330° |
| 2026-05-07 13:35 | 27.41366 | -80.07384 | 36065 ft | 411 kts | 330° |
| 2026-05-07 13:35 | 27.46419 | -80.10107 | 36065 ft | 411 kts | 330° |
| 2026-05-07 13:36 | 27.51511 | -80.12854 | 36067 ft | 411 kts | 330° |
| 2026-05-07 13:36 | 27.56592 | -80.15597 | 36070 ft | 411 kts | 330° |
| 2026-05-07 13:37 | 27.61641 | -80.18328 | 36075 ft | 410 kts | 330° |
| 2026-05-07 13:37 | 27.66727 | -80.21080 | 36075 ft | 410 kts | 330° |
| 2026-05-07 13:38 | 27.71817 | -80.23837 | 36075 ft | 410 kts | 330° |
| 2026-05-07 13:38 | 27.76867 | -80.26576 | 36073 ft | 410 kts | 330° |
| 2026-05-07 13:39 | 27.81942 | -80.29333 | 36074 ft | 409 kts | 330° |
| 2026-05-07 13:39 | 27.86990 | -80.32075 | 36074 ft | 410 kts | 330° |
| 2026-05-07 13:40 | 27.91999 | -80.34800 | 36070 ft | 410 kts | 330° |
| 2026-05-07 13:40 | 27.97033 | -80.37541 | 36068 ft | 410 kts | 330° |
| 2026-05-07 13:41 | 28.02017 | -80.40259 | 36067 ft | 410 kts | 330° |
| 2026-05-07 13:41 | 28.07024 | -80.42990 | 36066 ft | 410 kts | 330° |
| 2026-05-07 13:42 | 28.12005 | -80.45712 | 36064 ft | 409 kts | 330° |
| 2026-05-07 13:42 | 28.17032 | -80.48461 | 36065 ft | 409 kts | 330° |
| 2026-05-07 13:43 | 28.21935 | -80.51144 | 36061 ft | 409 kts | 329° |
| 2026-05-07 13:43 | 28.26850 | -80.53838 | 36061 ft | 410 kts | 329° |
| 2026-05-07 13:44 | 28.31754 | -80.56529 | 36060 ft | 410 kts | 329° |
| 2026-05-07 13:44 | 28.36678 | -80.59232 | 36059 ft | 409 kts | 329° |
| 2026-05-07 13:45 | 28.41460 | -80.61861 | 36057 ft | 409 kts | 329° |
| 2026-05-07 13:45 | 28.46360 | -80.64557 | 36055 ft | 409 kts | 329° |
| 2026-05-07 13:46 | 28.51143 | -80.67193 | 36058 ft | 409 kts | 329° |
| 2026-05-07 13:46 | 28.56044 | -80.69894 | 36053 ft | 409 kts | 329° |
| 2026-05-07 13:47 | 28.60502 | -80.72356 | 36053 ft | 409 kts | 329° |
| 2026-05-07 13:47 | 28.65783 | -80.75273 | 36050 ft | 409 kts | 329° |
| 2026-05-07 13:48 | 28.71123 | -80.78227 | 36049 ft | 409 kts | 329° |
| 2026-05-07 13:48 | 28.76374 | -80.81136 | 36050 ft | 409 kts | 329° |
| 2026-05-07 13:49 | 28.81512 | -80.83984 | 36042 ft | 409 kts | 329° |
| 2026-05-07 13:49 | 28.86788 | -80.86913 | 36038 ft | 409 kts | 329° |
| 2026-05-07 13:50 | 28.92108 | -80.89871 | 36040 ft | 408 kts | 329° |
| 2026-05-07 13:50 | 28.97401 | -80.92816 | 36041 ft | 408 kts | 329° |
| 2026-05-07 13:51 | 29.02734 | -80.95787 | 36042 ft | 408 kts | 328° |
| 2026-05-07 13:51 | 29.08022 | -80.98737 | 36042 ft | 409 kts | 328° |
| 2026-05-07 13:52 | 29.13326 | -81.01700 | 36041 ft | 409 kts | 328° |
| 2026-05-07 13:52 | 29.18615 | -81.04661 | 36041 ft | 409 kts | 328° |
| 2026-05-07 13:53 | 29.23487 | -81.07393 | 36040 ft | 408 kts | 328° |
| 2026-05-07 13:53 | 29.28087 | -81.09973 | 36040 ft | 408 kts | 328° |
| 2026-05-07 13:54 | 29.32669 | -81.12568 | 36039 ft | 407 kts | 328° |
| 2026-05-07 13:54 | 29.37262 | -81.15251 | 36039 ft | 407 kts | 327° |
| 2026-05-07 13:55 | 29.41753 | -81.17884 | 36039 ft | 408 kts | 327° |
| 2026-05-07 13:55 | 29.46298 | -81.20551 | 36039 ft | 408 kts | 327° |
| 2026-05-07 13:56 | 29.50719 | -81.23148 | 36038 ft | 407 kts | 327° |
| 2026-05-07 13:56 | 29.55180 | -81.25771 | 36034 ft | 407 kts | 327° |
| 2026-05-07 13:57 | 29.59637 | -81.28395 | 36033 ft | 407 kts | 327° |
| 2026-05-07 13:57 | 29.64082 | -81.31014 | 36030 ft | 408 kts | 327° |
| 2026-05-07 13:58 | 29.68487 | -81.33611 | 36026 ft | 407 kts | 327° |
| 2026-05-07 13:58 | 29.72927 | -81.36231 | 36022 ft | 407 kts | 327° |
| 2026-05-07 13:59 | 29.77350 | -81.38844 | 36023 ft | 407 kts | 327° |
| 2026-05-07 13:59 | 29.81698 | -81.41416 | 36024 ft | 407 kts | 327° |
| 2026-05-07 14:00 | 29.86063 | -81.44000 | 36026 ft | 406 kts | 327° |
| 2026-05-07 14:00 | 29.90420 | -81.46583 | 36028 ft | 406 kts | 327° |
| 2026-05-07 14:01 | 29.94839 | -81.49204 | 36029 ft | 407 kts | 327° |
| 2026-05-07 14:01 | 29.99198 | -81.51793 | 36030 ft | 408 kts | 326° |
| 2026-05-07 14:02 | 30.03602 | -81.54410 | 36034 ft | 407 kts | 326° |
| 2026-05-07 14:02 | 30.08198 | -81.57145 | 36037 ft | 407 kts | 326° |
| 2026-05-07 14:03 | 30.13205 | -81.60128 | 36034 ft | 407 kts | 326° |
| 2026-05-07 14:03 | 30.17562 | -81.62727 | 36033 ft | 407 kts | 326° |
| 2026-05-07 14:04 | 30.21966 | -81.65356 | 36028 ft | 407 kts | 326° |
| 2026-05-07 14:04 | 30.27057 | -81.68399 | 36025 ft | 406 kts | 326° |
| 2026-05-07 14:05 | 30.31662 | -81.71153 | 36026 ft | 407 kts | 326° |
| 2026-05-07 14:05 | 30.36108 | -81.73815 | 36023 ft | 406 kts | 326° |
| 2026-05-07 14:06 | 30.40578 | -81.76495 | 36026 ft | 407 kts | 326° |
| 2026-05-07 14:06 | 30.45335 | -81.79349 | 36024 ft | 407 kts | 326° |
| 2026-05-07 14:07 | 30.50077 | -81.82199 | 36024 ft | 407 kts | 326° |
| 2026-05-07 14:07 | 30.54435 | -81.84821 | 36020 ft | 408 kts | 326° |
| 2026-05-07 14:08 | 30.58809 | -81.87453 | 36013 ft | 408 kts | 326° |
| 2026-05-07 14:08 | 30.63140 | -81.90064 | 36016 ft | 408 kts | 326° |
| 2026-05-07 14:09 | 30.67507 | -81.92699 | 36013 ft | 408 kts | 326° |
| 2026-05-07 14:09 | 30.71881 | -81.95338 | 36011 ft | 408 kts | 325° |
| 2026-05-07 14:10 | 30.76270 | -81.97992 | 36009 ft | 408 kts | 325° |
| 2026-05-07 14:10 | 30.80698 | -82.00673 | 36002 ft | 408 kts | 325° |
| 2026-05-07 14:11 | 30.85380 | -82.03509 | 36002 ft | 408 kts | 325° |
| 2026-05-07 14:11 | 30.89704 | -82.06131 | 36002 ft | 408 kts | 325° |
| 2026-05-07 14:12 | 30.94027 | -82.08755 | 36000 ft | 408 kts | 325° |
| 2026-05-07 14:12 | 30.98518 | -82.11485 | 36006 ft | 408 kts | 325° |
| 2026-05-07 14:13 | 31.02975 | -82.14196 | 36009 ft | 409 kts | 325° |
| 2026-05-07 14:13 | 31.07441 | -82.16917 | 36010 ft | 409 kts | 325° |
| 2026-05-07 14:14 | 31.11868 | -82.19614 | 36007 ft | 409 kts | 325° |
| 2026-05-07 14:14 | 31.16427 | -82.22398 | 36005 ft | 409 kts | 325° |
| 2026-05-07 14:15 | 31.21607 | -82.25562 | 36006 ft | 409 kts | 325° |
| 2026-05-07 14:15 | 31.26241 | -82.28398 | 36008 ft | 410 kts | 325° |
| 2026-05-07 14:16 | 31.30782 | -82.31179 | 36008 ft | 410 kts | 325° |
| 2026-05-07 14:16 | 31.35391 | -82.34006 | 36006 ft | 411 kts | 325° |
| 2026-05-07 14:17 | 31.39857 | -82.36746 | 36003 ft | 411 kts | 324° |
| 2026-05-07 14:17 | 31.44359 | -82.39512 | 36004 ft | 412 kts | 324° |
| 2026-05-07 14:18 | 31.48840 | -82.42270 | 36003 ft | 413 kts | 324° |
| 2026-05-07 14:18 | 31.53242 | -82.44981 | 36006 ft | 413 kts | 324° |
| 2026-05-07 14:19 | 31.57901 | -82.47853 | 36010 ft | 414 kts | 324° |
| 2026-05-07 14:19 | 31.63167 | -82.51103 | 36006 ft | 414 kts | 324° |
| 2026-05-07 14:20 | 31.68046 | -82.54119 | 36000 ft | 413 kts | 324° |
| 2026-05-07 14:20 | 31.72600 | -82.56936 | 35656 ft | 414 kts | 324° |
| 2026-05-07 14:20 | 31.74854 | -82.58331 | 35400 ft | 411 kts | 324° |
| 2026-05-07 14:21 | 31.77118 | -82.59732 | 35142 ft | 409 kts | 324° |
| 2026-05-07 14:21 | 31.79352 | -82.61117 | 34884 ft | 407 kts | 324° |
| 2026-05-07 14:21 | 31.81584 | -82.62502 | 34629 ft | 406 kts | 324° |
| 2026-05-07 14:21 | 31.83841 | -82.63904 | 34375 ft | 407 kts | 324° |
| 2026-05-07 14:22 | 31.86092 | -82.65304 | 34121 ft | 408 kts | 324° |
| 2026-05-07 14:22 | 31.88335 | -82.66700 | 33868 ft | 409 kts | 324° |
| 2026-05-07 14:22 | 31.90510 | -82.68053 | 33621 ft | 410 kts | 324° |
| 2026-05-07 14:22 | 31.92993 | -82.69598 | 33344 ft | 410 kts | 324° |
| 2026-05-07 14:23 | 31.95559 | -82.71196 | 33053 ft | 412 kts | 324° |
| 2026-05-07 14:23 | 31.98183 | -82.72830 | 32783 ft | 413 kts | 324° |
| 2026-05-07 14:23 | 32.00440 | -82.74237 | 32551 ft | 414 kts | 324° |
| 2026-05-07 14:23 | 32.02718 | -82.75660 | 32317 ft | 414 kts | 324° |
| 2026-05-07 14:24 | 32.05006 | -82.77089 | 32085 ft | 415 kts | 324° |
| 2026-05-07 14:24 | 32.07255 | -82.78494 | 31856 ft | 416 kts | 324° |
| 2026-05-07 14:24 | 32.09532 | -82.79918 | 31625 ft | 417 kts | 324° |
| 2026-05-07 14:24 | 32.11800 | -82.81334 | 31396 ft | 417 kts | 324° |
| 2026-05-07 14:25 | 32.14102 | -82.82774 | 31165 ft | 417 kts | 323° |
| 2026-05-07 14:25 | 32.16387 | -82.84205 | 30937 ft | 418 kts | 324° |
| 2026-05-07 14:25 | 32.18688 | -82.85647 | 30702 ft | 419 kts | 324° |
| 2026-05-07 14:25 | 32.21017 | -82.87107 | 30471 ft | 420 kts | 324° |
| 2026-05-07 14:26 | 32.23317 | -82.88549 | 30245 ft | 420 kts | 324° |
| 2026-05-07 14:26 | 32.25648 | -82.90016 | 30014 ft | 421 kts | 324° |
| 2026-05-07 14:26 | 32.27302 | -82.91055 | 29852 ft | 422 kts | 324° |
| 2026-05-07 14:26 | 32.29624 | -82.92515 | 29622 ft | 423 kts | 325° |
| 2026-05-07 14:27 | 32.31954 | -82.93979 | 29398 ft | 423 kts | 324° |
| 2026-05-07 14:27 | 32.34274 | -82.95496 | 29171 ft | 421 kts | 322° |
| 2026-05-07 14:27 | 32.36500 | -82.97107 | 28945 ft | 419 kts | 320° |
| 2026-05-07 14:27 | 32.38668 | -82.98845 | 28725 ft | 417 kts | 318° |
| 2026-05-07 14:28 | 32.40760 | -83.00697 | 28501 ft | 416 kts | 315° |
| 2026-05-07 14:28 | 32.42786 | -83.02671 | 28277 ft | 415 kts | 313° |
| 2026-05-07 14:28 | 32.44730 | -83.04658 | 28062 ft | 415 kts | 312° |
| 2026-05-07 14:28 | 32.46683 | -83.06677 | 27843 ft | 414 kts | 313° |
| 2026-05-07 14:29 | 32.48789 | -83.08855 | 27609 ft | 415 kts | 313° |
| 2026-05-07 14:29 | 32.50846 | -83.10984 | 27377 ft | 414 kts | 312° |
| 2026-05-07 14:29 | 32.52667 | -83.12872 | 27174 ft | 415 kts | 312° |
| 2026-05-07 14:29 | 32.54461 | -83.14731 | 26885 ft | 416 kts | 312° |
| 2026-05-07 14:30 | 32.56324 | -83.16655 | 26386 ft | 417 kts | 312° |
| 2026-05-07 14:30 | 32.58176 | -83.18569 | 25770 ft | 417 kts | 312° |
| 2026-05-07 14:30 | 32.59982 | -83.20438 | 25110 ft | 418 kts | 312° |
| 2026-05-07 14:30 | 32.61834 | -83.22349 | 24377 ft | 420 kts | 313° |
| 2026-05-07 14:31 | 32.63712 | -83.24293 | 23647 ft | 421 kts | 312° |
| 2026-05-07 14:31 | 32.65590 | -83.26232 | 23069 ft | 419 kts | 312° |
| 2026-05-07 14:31 | 32.67471 | -83.28182 | 22568 ft | 414 kts | 312° |
| 2026-05-07 14:31 | 32.69539 | -83.30331 | 22012 ft | 410 kts | 313° |
| 2026-05-07 14:32 | 32.71640 | -83.32514 | 21444 ft | 405 kts | 312° |
| 2026-05-07 14:32 | 32.73706 | -83.34665 | 20878 ft | 401 kts | 312° |
| 2026-05-07 14:32 | 32.75748 | -83.36792 | 20312 ft | 397 kts | 312° |
| 2026-05-07 14:32 | 32.77772 | -83.38905 | 19750 ft | 392 kts | 312° |
| 2026-05-07 14:33 | 32.79780 | -83.41003 | 19193 ft | 388 kts | 312° |
| 2026-05-07 14:33 | 32.81756 | -83.43070 | 18637 ft | 383 kts | 312° |
| 2026-05-07 14:33 | 32.83716 | -83.45119 | 18077 ft | 379 kts | 312° |
| 2026-05-07 14:33 | 32.85510 | -83.46996 | 17683 ft | 371 kts | 312° |
| 2026-05-07 14:34 | 32.87152 | -83.48706 | 17477 ft | 356 kts | 311° |
| 2026-05-07 14:34 | 32.88722 | -83.50341 | 17292 ft | 336 kts | 311° |
| 2026-05-07 14:34 | 32.90235 | -83.51926 | 17095 ft | 324 kts | 310° |
| 2026-05-07 14:34 | 32.91645 | -83.53406 | 16896 ft | 315 kts | 310° |
| 2026-05-07 14:35 | 32.93046 | -83.54878 | 16708 ft | 306 kts | 310° |
| 2026-05-07 14:35 | 32.94379 | -83.56278 | 16538 ft | 299 kts | 310° |
| 2026-05-07 14:35 | 32.95942 | -83.57921 | 16173 ft | 298 kts | 310° |
| 2026-05-07 14:35 | 32.97498 | -83.59558 | 15727 ft | 298 kts | 310° |
| 2026-05-07 14:36 | 32.98969 | -83.61099 | 15329 ft | 297 kts | 310° |
| 2026-05-07 14:36 | 33.00296 | -83.62489 | 14972 ft | 296 kts | 310° |
| 2026-05-07 14:36 | 33.01650 | -83.63910 | 14598 ft | 296 kts | 310° |
| 2026-05-07 14:36 | 33.02999 | -83.65328 | 14233 ft | 295 kts | 310° |
| 2026-05-07 14:37 | 33.04377 | -83.66773 | 13865 ft | 295 kts | 310° |
| 2026-05-07 14:37 | 33.07148 | -83.69688 | 13098 ft | 296 kts | 310° |
| 2026-05-07 14:37 | 33.08509 | -83.71122 | 12728 ft | 296 kts | 310° |
| 2026-05-07 14:38 | 33.09885 | -83.72568 | 12463 ft | 291 kts | 310° |
| 2026-05-07 14:38 | 33.11209 | -83.73954 | 12351 ft | 280 kts | 310° |
| 2026-05-07 14:38 | 33.12497 | -83.75302 | 12237 ft | 270 kts | 310° |
| 2026-05-07 14:38 | 33.13691 | -83.76556 | 12123 ft | 264 kts | 310° |
| 2026-05-07 14:39 | 33.14885 | -83.77824 | 11900 ft | 270 kts | 310° |
| 2026-05-07 14:39 | 33.16095 | -83.79108 | 11593 ft | 270 kts | 310° |
| 2026-05-07 14:39 | 33.17269 | -83.80353 | 11270 ft | 270 kts | 310° |
| 2026-05-07 14:39 | 33.18559 | -83.81715 | 10909 ft | 269 kts | 309° |
| 2026-05-07 14:40 | 33.19899 | -83.83240 | 10539 ft | 266 kts | 307° |
| 2026-05-07 14:40 | 33.21171 | -83.84747 | 10184 ft | 264 kts | 307° |
| 2026-05-07 14:40 | 33.22305 | -83.86100 | 9875 ft | 264 kts | 307° |
| 2026-05-07 14:40 | 33.23446 | -83.87462 | 9562 ft | 264 kts | 308° |
| 2026-05-07 14:41 | 33.24597 | -83.88835 | 9244 ft | 263 kts | 308° |
| 2026-05-07 14:41 | 33.25682 | -83.90131 | 8950 ft | 261 kts | 308° |
| 2026-05-07 14:41 | 33.26832 | -83.91502 | 8640 ft | 259 kts | 308° |
| 2026-05-07 14:41 | 33.27953 | -83.92839 | 8328 ft | 258 kts | 308° |
| 2026-05-07 14:42 | 33.29036 | -83.94132 | 8047 ft | 256 kts | 308° |
| 2026-05-07 14:42 | 33.30148 | -83.95457 | 7745 ft | 255 kts | 308° |
| 2026-05-07 14:42 | 33.31279 | -83.96810 | 7402 ft | 253 kts | 308° |
| 2026-05-07 14:42 | 33.32393 | -83.98143 | 7070 ft | 252 kts | 308° |
| 2026-05-07 14:43 | 33.33485 | -83.99375 | 6750 ft | 254 kts | 316° |
| 2026-05-07 14:43 | 33.34914 | -84.00165 | 6382 ft | 268 kts | 341° |
| 2026-05-07 14:43 | 33.36592 | -84.00314 | 6223 ft | 271 kts | 352° |
| 2026-05-07 14:43 | 33.38266 | -84.00291 | 6109 ft | 274 kts | 354° |
| 2026-05-07 14:44 | 33.39976 | -84.00236 | 6005 ft | 274 kts | 354° |
| 2026-05-07 14:44 | 33.41622 | -84.00183 | 5976 ft | 274 kts | 354° |
| 2026-05-07 14:44 | 33.43298 | -84.00132 | 5969 ft | 274 kts | 354° |
| 2026-05-07 14:44 | 33.44973 | -84.00080 | 5971 ft | 274 kts | 354° |
| 2026-05-07 14:45 | 33.46708 | -84.00024 | 5968 ft | 274 kts | 354° |
| 2026-05-07 14:45 | 33.48350 | -83.99968 | 5971 ft | 273 kts | 354° |
| 2026-05-07 14:45 | 33.50044 | -83.99908 | 5969 ft | 272 kts | 354° |
| 2026-05-07 14:45 | 33.51749 | -83.99853 | 5971 ft | 272 kts | 354° |
| 2026-05-07 14:46 | 33.53428 | -83.99798 | 5974 ft | 272 kts | 354° |
| 2026-05-07 14:46 | 33.55067 | -83.99744 | 5974 ft | 272 kts | 354° |
| 2026-05-07 14:46 | 33.56697 | -83.99693 | 5974 ft | 271 kts | 354° |
| 2026-05-07 14:46 | 33.58305 | -83.99785 | 5962 ft | 263 kts | 340° |
| 2026-05-07 14:47 | 33.59724 | -84.00571 | 5970 ft | 251 kts | 315° |
| 2026-05-07 14:47 | 33.60685 | -84.01917 | 5972 ft | 244 kts | 299° |
| 2026-05-07 14:47 | 33.61387 | -84.03371 | 5836 ft | 241 kts | 295° |
| 2026-05-07 14:47 | 33.62067 | -84.04922 | 5641 ft | 241 kts | 293° |
| 2026-05-07 14:48 | 33.62645 | -84.06553 | 5423 ft | 240 kts | 287° |
| 2026-05-07 14:48 | 33.62999 | -84.08220 | 5214 ft | 240 kts | 278° |
| 2026-05-07 14:48 | 33.63144 | -84.09969 | 4999 ft | 241 kts | 274° |
| 2026-05-07 14:48 | 33.63208 | -84.11727 | 4780 ft | 241 kts | 272° |
| 2026-05-07 14:49 | 33.63234 | -84.13453 | 4606 ft | 239 kts | 271° |
| 2026-05-07 14:49 | 33.63240 | -84.15155 | 4474 ft | 230 kts | 271° |
| 2026-05-07 14:49 | 33.63236 | -84.16856 | 4335 ft | 222 kts | 270° |
| 2026-05-07 14:49 | 33.63229 | -84.18484 | 4193 ft | 215 kts | 270° |
| 2026-05-07 14:50 | 33.63221 | -84.20049 | 4053 ft | 208 kts | 271° |
| 2026-05-07 14:50 | 33.63215 | -84.21557 | 3947 ft | 201 kts | 271° |
| 2026-05-07 14:50 | 33.63209 | -84.23023 | 3959 ft | 204 kts | 271° |
| 2026-05-07 14:50 | 33.63205 | -84.24488 | 3742 ft | 201 kts | 271° |
| 2026-05-07 14:51 | 33.63200 | -84.25935 | 3517 ft | 196 kts | 271° |
| 2026-05-07 14:51 | 33.63197 | -84.27363 | 3297 ft | 190 kts | 272° |
| 2026-05-07 14:51 | 33.63193 | -84.28730 | 3086 ft | 185 kts | 272° |
| 2026-05-07 14:51 | 33.63191 | -84.30024 | 2923 ft | 176 kts | 272° |
| 2026-05-07 14:52 | 33.63189 | -84.31263 | 2712 ft | 170 kts | 271° |
| 2026-05-07 14:52 | 33.63187 | -84.32475 | 2511 ft | 165 kts | 271° |
| 2026-05-07 14:52 | 33.63186 | -84.33688 | 2333 ft | 165 kts | 271° |
| 2026-05-07 14:52 | 33.63186 | -84.34889 | 2131 ft | 158 kts | 271° |
| 2026-05-07 14:53 | 33.63183 | -84.36069 | 1911 ft | 143 kts | 271° |
| 2026-05-07 14:53 | 33.63182 | -84.37063 | 1751 ft | 138 kts | 272° |
| 2026-05-07 14:53 | 33.63182 | -84.38081 | 1607 ft | 137 kts | 272° |
| 2026-05-07 14:53 | 33.63182 | -84.39027 | 1464 ft | 137 kts | 271° |
| 2026-05-07 14:54 | 33.63181 | -84.40009 | 1313 ft | 137 kts | 272° |
| 2026-05-07 14:54 | 33.63180 | -84.40695 | 1210 ft | 137 kts | 271° |
| 2026-05-07 14:54 | 33.63180 | -84.41753 | 1045 ft | 137 kts | 271° |
| 2026-05-07 14:54 | 33.63175 | -84.42686 | 999 ft | 124 kts | 271° |
| 2026-05-07 14:55 | 33.63185 | -84.43375 | 1008 ft | 58 kts | 272° |
| 2026-05-07 14:55 | 33.63245 | -84.43668 | 1011 ft | 29 kts | 302° |
| 2026-05-07 14:55 | 33.63350 | -84.43708 | 1012 ft | 17 kts | 68° |
| 2026-05-07 14:55 | 33.63388 | -84.43621 | 1012 ft | 13 kts | 30° |
| 2026-05-07 14:56 | 33.63466 | -84.43610 | 1013 ft | 12 kts | 3° |
| 2026-05-07 14:56 | 33.63544 | -84.43606 | 1013 ft | 13 kts | 5° |
| 2026-05-07 14:56 | 33.63582 | -84.43561 | 1012 ft | 7 kts | 85° |
| 2026-05-07 14:56 | 33.63585 | -84.43501 | 1011 ft | 9 kts | 89° |
| 2026-05-07 14:57 | 33.63583 | -84.43422 | 1011 ft | 10 kts | 92° |
| 2026-05-07 14:57 | 33.63582 | -84.43331 | 1011 ft | 11 kts | 91° |
| 2026-05-07 14:57 | 33.63581 | -84.43239 | 1009 ft | 13 kts | 90° |
| 2026-05-07 14:57 | 33.63582 | -84.43135 | 1008 ft | 15 kts | 89° |
| 2026-05-07 14:58 | 33.63583 | -84.43026 | 1008 ft | 15 kts | 91° |
| 2026-05-07 14:58 | 33.63581 | -84.42915 | 1006 ft | 15 kts | 91° |
| 2026-05-07 14:58 | 33.63582 | -84.42818 | 1004 ft | 10 kts | 82° |
| 2026-05-07 14:58 | 33.63626 | -84.42770 | 1003 ft | 11 kts | 9° |
| 2026-05-07 14:59 | 33.63692 | -84.42742 | 1003 ft | 12 kts | 18° |
| 2026-05-07 14:59 | 33.63766 | -84.42733 | 1003 ft | 12 kts | 1° |
| 2026-05-07 14:59 | 33.63836 | -84.42733 | 1004 ft | 11 kts | 0° |
| 2026-05-07 14:59 | 33.63900 | -84.42733 | 1004 ft | 10 kts | 360° |
| 2026-05-07 15:00 | 33.63958 | -84.42733 | 1004 ft | 7 kts | 0° |
| 2026-05-07 15:00 | 33.63991 | -84.42732 | 1004 ft | 3 kts | 11° |
| 2026-05-07 15:00 | 33.63998 | -84.42721 | 1004 ft | 1 kts | 71° |
| 2026-05-07 15:00 | 33.64002 | -84.42706 | 1004 ft | 2 kts | 72° |
| 2026-05-07 15:01 | 33.64005 | -84.42683 | 1004 ft | 3 kts | 86° |
| 2026-05-07 15:01 | 33.64005 | -84.42659 | 1004 ft | 3 kts | 89° |
| 2026-05-07 15:01 | 33.64006 | -84.42644 | 1003 ft | 3 kts | 90° |
| 2026-05-07 15:01 | 33.64006 | -84.42635 | 1003 ft | 1 kts | 90° |
| 2026-05-07 15:02 | 33.64006 | -84.42628 | 1003 ft | 0 kts | 90° |
| 2026-05-07 15:02 | 33.64006 | -84.42626 | 1003 ft | 0 kts | 90° |